createdAt,value
2022-12-01T00:01:20.268Z,7.41
2022-12-01T00:03:47.526Z,7.44
2022-12-01T00:06:17.887Z,7.35
2022-12-01T00:09:04.913Z,7.23
2022-12-01T00:11:33.554Z,7.34
2022-12-01T00:14:01.494Z,7.39
2022-12-01T00:16:28.904Z,7.26
2022-12-01T00:18:56.212Z,7.36
2022-12-01T00:21:24.439Z,7.08
2022-12-01T00:23:54.243Z,7.23
2022-12-01T00:26:22.210Z,7.34
2022-12-01T00:28:57.508Z,7.26
2022-12-01T00:31:25.497Z,7.13
2022-12-01T00:33:53.023Z,7.19
2022-12-01T00:36:21.578Z,7.18
2022-12-01T00:38:52.104Z,6.92
2022-12-01T00:41:19.649Z,7.01
2022-12-01T00:43:47.630Z,7.10
2022-12-01T00:46:15.266Z,6.92
2022-12-01T00:48:42.491Z,6.73
2022-12-01T00:51:09.791Z,6.69
2022-12-01T00:53:37.038Z,6.93
2022-12-01T00:56:04.665Z,6.74
2022-12-01T00:58:31.955Z,6.56
2022-12-01T01:01:00.874Z,6.44
2022-12-01T01:03:29.612Z,6.29
2022-12-01T01:05:56.860Z,6.42
2022-12-01T01:08:24.032Z,6.48
2022-12-01T01:10:51.309Z,6.59
2022-12-01T01:13:18.529Z,6.45
2022-12-01T01:15:46.133Z,6.55
2022-12-01T01:18:13.414Z,6.53
2022-12-01T01:20:40.611Z,6.62
2022-12-01T01:23:07.890Z,6.46
2022-12-01T01:25:35.137Z,6.63
2022-12-01T01:28:02.438Z,6.53
2022-12-01T01:30:29.753Z,6.60
2022-12-01T01:32:56.960Z,6.58
2022-12-01T01:35:24.247Z,6.69
2022-12-01T01:37:51.841Z,6.91
2022-12-01T01:40:19.109Z,6.70
2022-12-01T01:42:46.380Z,6.63
2022-12-01T01:45:24.206Z,6.72
2022-12-01T01:47:53.165Z,6.71
2022-12-01T01:50:23.282Z,6.93
2022-12-01T01:53:00.166Z,6.84
2022-12-01T01:55:29.191Z,6.67
2022-12-01T01:57:56.705Z,6.43
2022-12-01T02:00:24.214Z,6.41
2022-12-01T02:02:51.890Z,6.53
2022-12-01T02:05:32.092Z,6.15
2022-12-01T02:07:59.475Z,6.42
2022-12-01T02:10:50.134Z,6.49
2022-12-01T02:13:48.258Z,6.43
2022-12-01T02:16:41.041Z,6.50
2022-12-01T02:19:46.179Z,6.67
2022-12-01T02:22:23.397Z,6.70
2022-12-01T02:24:55.738Z,6.96
2022-12-01T02:27:43.913Z,7.00
2022-12-01T02:30:14.448Z,6.95
2022-12-01T02:33:02.688Z,6.89
2022-12-01T02:35:34.715Z,6.81
2022-12-01T02:38:15.523Z,6.81
2022-12-01T02:41:11.361Z,6.80
2022-12-01T02:43:49.386Z,6.84
2022-12-01T02:46:29.900Z,6.99
2022-12-01T02:48:59.699Z,6.81
2022-12-01T02:51:31.054Z,6.84
2022-12-01T02:53:59.784Z,6.87
2022-12-01T02:56:27.252Z,6.51
2022-12-01T02:58:54.851Z,6.50
2022-12-01T03:01:31.241Z,6.50
2022-12-01T03:04:15.451Z,6.35
2022-12-01T03:07:08.521Z,6.41
2022-12-01T03:09:51.555Z,6.46
2022-12-01T03:12:47.955Z,6.58
2022-12-01T03:15:36.226Z,6.50
2022-12-01T03:18:13.655Z,6.68
2022-12-01T03:20:42.452Z,6.44
2022-12-01T03:23:15.672Z,6.66
2022-12-01T03:25:46.027Z,6.48
2022-12-01T03:28:23.325Z,6.66
2022-12-01T03:30:55.830Z,6.82
2022-12-01T03:33:34.444Z,6.60
2022-12-01T03:36:05.560Z,6.61
2022-12-01T03:38:36.104Z,6.41
2022-12-01T03:41:11.397Z,6.57
2022-12-01T03:43:42.358Z,6.54
2022-12-01T03:46:19.842Z,6.37
2022-12-01T03:48:47.292Z,6.25
2022-12-01T03:51:23.469Z,6.40
2022-12-01T03:53:55.466Z,6.08
2022-12-01T03:56:26.292Z,6.35
2022-12-01T03:58:56.974Z,6.47
2022-12-01T04:01:24.283Z,6.38
2022-12-01T04:03:51.578Z,6.39
2022-12-01T04:06:19.174Z,6.37
2022-12-01T04:08:46.366Z,6.56
2022-12-01T04:11:32.971Z,6.51
2022-12-01T04:14:00.306Z,6.34
2022-12-01T04:16:27.571Z,6.51
2022-12-01T04:18:54.821Z,6.48
2022-12-01T04:21:22.011Z,6.38
2022-12-01T04:24:01.319Z,6.31
2022-12-01T04:26:33.723Z,6.41
2022-12-01T04:29:01.839Z,6.43
2022-12-01T04:31:29.634Z,6.28
2022-12-01T04:33:58.151Z,6.25
2022-12-01T04:36:26.181Z,6.22
2022-12-01T04:38:53.480Z,6.10
2022-12-01T04:41:20.653Z,6.25
2022-12-01T04:43:48.303Z,6.32
2022-12-01T04:46:15.916Z,6.12
2022-12-01T04:48:43.565Z,6.16
2022-12-01T04:51:10.745Z,6.21
2022-12-01T04:53:38.231Z,6.11
2022-12-01T04:56:05.993Z,5.94
2022-12-01T04:58:33.893Z,6.19
2022-12-01T05:01:03.178Z,6.24
2022-12-01T05:03:30.445Z,6.35
2022-12-01T05:06:05.654Z,6.36
2022-12-01T05:08:34.206Z,6.23
2022-12-01T05:11:05.138Z,5.90
2022-12-01T05:13:32.328Z,6.05
2022-12-01T05:16:14.714Z,6.21
2022-12-01T05:18:42.374Z,6.18
2022-12-01T05:21:11.256Z,6.05
2022-12-01T05:23:39.219Z,5.87
2022-12-01T05:26:08.027Z,6.10
2022-12-01T05:28:35.672Z,6.15
2022-12-01T05:31:03.630Z,6.11
2022-12-01T05:33:31.031Z,5.97
2022-12-01T05:35:58.323Z,5.93
2022-12-01T05:38:25.614Z,5.97
2022-12-01T05:40:54.460Z,5.95
2022-12-01T05:43:28.533Z,5.90
2022-12-01T05:45:57.323Z,5.90
2022-12-01T05:48:25.189Z,5.62
2022-12-01T05:50:52.363Z,5.70
2022-12-01T05:53:20.097Z,5.69
2022-12-01T05:55:51.931Z,5.71
2022-12-01T05:58:19.311Z,5.64
2022-12-01T06:00:46.510Z,5.54
2022-12-01T06:03:14.246Z,5.79
2022-12-01T06:05:41.437Z,5.69
2022-12-01T06:08:08.683Z,5.77
2022-12-01T06:10:35.908Z,5.70
2022-12-01T06:13:03.177Z,6.04
2022-12-01T06:15:30.530Z,5.89
2022-12-01T06:18:00.940Z,5.60
2022-12-01T06:20:28.318Z,5.46
2022-12-01T06:22:55.514Z,5.50
2022-12-01T06:25:22.743Z,5.78
2022-12-01T06:27:49.945Z,5.96
2022-12-01T06:30:17.279Z,5.97
2022-12-01T06:32:44.569Z,5.98
2022-12-01T06:35:11.848Z,5.79
2022-12-01T06:37:39.135Z,5.66
2022-12-01T06:40:07.110Z,5.92
2022-12-01T06:42:34.329Z,5.63
2022-12-01T06:45:01.510Z,5.76
2022-12-01T06:47:29.119Z,5.73
2022-12-01T06:49:56.436Z,5.58
2022-12-01T06:52:23.746Z,5.59
2022-12-01T06:54:50.894Z,5.52
2022-12-01T06:57:18.687Z,5.68
2022-12-01T06:59:45.954Z,5.79
2022-12-01T07:02:13.777Z,5.76
2022-12-01T07:04:41.029Z,5.57
2022-12-01T07:07:08.534Z,5.60
2022-12-01T07:09:35.768Z,5.62
2022-12-01T07:12:03.050Z,5.79
2022-12-01T07:14:31.616Z,5.82
2022-12-01T07:17:00.069Z,5.90
2022-12-01T07:19:27.398Z,6.20
2022-12-01T07:21:54.621Z,6.03
2022-12-01T07:24:21.848Z,6.01
2022-12-01T07:26:49.327Z,6.19
2022-12-01T07:29:16.753Z,6.05
2022-12-01T07:31:44.256Z,6.27
2022-12-01T07:34:13.354Z,6.00
2022-12-01T07:36:40.583Z,5.91
2022-12-01T07:39:08.394Z,5.77
2022-12-01T07:41:35.857Z,5.65
2022-12-01T07:44:03.303Z,5.77
2022-12-01T07:46:30.830Z,5.90
2022-12-01T07:48:59.332Z,5.93
2022-12-01T07:51:27.202Z,5.91
2022-12-01T07:53:55.402Z,5.97
2022-12-01T07:56:23.451Z,5.94
2022-12-01T07:58:50.666Z,5.49
2022-12-01T08:01:20.511Z,5.74
2022-12-01T08:03:52.813Z,5.96
2022-12-01T08:06:20.686Z,5.95
2022-12-01T08:08:48.769Z,5.83
2022-12-01T08:11:19.142Z,5.46
2022-12-01T08:13:46.632Z,5.39
2022-12-01T08:16:18.713Z,5.35
2022-12-01T08:18:46.568Z,5.47
2022-12-01T08:21:15.928Z,5.43
2022-12-01T08:23:44.138Z,5.46
2022-12-01T08:26:13.982Z,5.44
2022-12-01T08:28:41.697Z,5.63
2022-12-01T08:31:18.076Z,5.61
2022-12-01T08:33:46.464Z,5.44
2022-12-01T08:36:14.261Z,5.54
2022-12-01T08:38:45.779Z,5.38
2022-12-01T08:41:13.628Z,5.54
2022-12-01T08:44:00.453Z,5.42
2022-12-01T08:46:31.735Z,5.68
2022-12-01T08:48:59.181Z,5.53
2022-12-01T08:51:26.930Z,5.42
2022-12-01T08:53:55.864Z,5.58
2022-12-01T08:56:38.578Z,5.71
2022-12-01T08:59:06.057Z,5.65
2022-12-01T09:01:33.648Z,5.77
2022-12-01T09:04:10.802Z,5.88
2022-12-01T09:06:41.710Z,5.82
2022-12-01T09:09:11.283Z,5.84
2022-12-01T09:11:39.050Z,5.86
2022-12-01T09:14:06.666Z,5.82
2022-12-01T09:16:34.260Z,6.12
2022-12-01T09:19:01.976Z,6.08
2022-12-01T09:21:32.439Z,6.15
2022-12-01T09:24:01.285Z,6.28
2022-12-01T09:26:29.070Z,6.28
2022-12-01T09:29:03.505Z,6.07
2022-12-01T09:31:30.943Z,6.16
2022-12-01T09:34:01.183Z,6.28
2022-12-01T09:36:29.852Z,6.52
2022-12-01T09:38:57.170Z,6.84
2022-12-01T09:41:28.300Z,6.16
2022-12-01T09:44:34.063Z,6.44
2022-12-01T09:47:19.101Z,5.99
2022-12-01T09:50:00.316Z,6.17
2022-12-01T09:52:29.901Z,6.48
2022-12-01T09:54:59.128Z,6.46
2022-12-01T09:57:33.051Z,6.28
2022-12-01T10:00:02.993Z,6.25
2022-12-01T10:02:42.776Z,6.44
2022-12-01T10:05:15.658Z,6.77
2022-12-01T10:07:49.163Z,6.91
2022-12-01T10:10:36.602Z,6.74
2022-12-01T10:13:12.769Z,6.62
2022-12-01T10:15:46.505Z,6.82
2022-12-01T10:18:22.681Z,7.01
2022-12-01T10:21:08.812Z,6.72
2022-12-01T10:23:48.315Z,6.86
2022-12-01T10:26:25.356Z,6.78
2022-12-01T10:29:28.780Z,6.89
2022-12-01T10:32:06.930Z,6.89
2022-12-01T10:34:36.774Z,6.84
2022-12-01T10:37:04.251Z,6.63
2022-12-01T10:39:36.294Z,6.75
2022-12-01T10:42:12.962Z,6.95
2022-12-01T10:44:41.034Z,6.89
2022-12-01T10:47:20.432Z,6.93
2022-12-01T10:49:48.109Z,6.35
2022-12-01T10:52:36.230Z,6.74
2022-12-01T10:55:06.489Z,6.82
2022-12-01T10:57:33.961Z,6.78
2022-12-01T11:00:07.219Z,6.80
2022-12-01T11:02:35.497Z,6.68
2022-12-01T11:05:07.965Z,6.23
2022-12-01T11:07:42.754Z,6.42
2022-12-01T11:10:33.971Z,6.70
2022-12-01T11:13:24.118Z,6.63
2022-12-01T11:15:52.325Z,6.87
2022-12-01T11:18:39.519Z,6.99
2022-12-01T11:21:27.750Z,6.85
2022-12-01T11:23:56.165Z,6.72
2022-12-01T11:26:25.668Z,6.69
2022-12-01T11:29:15.913Z,6.52
2022-12-01T11:31:48.855Z,6.73
2022-12-01T11:34:23.512Z,6.87
2022-12-01T11:36:55.979Z,7.15
2022-12-01T11:39:36.832Z,7.17
2022-12-01T11:42:19.889Z,6.95
2022-12-01T11:44:56.689Z,7.15
2022-12-01T11:47:26.473Z,6.68
2022-12-01T11:50:16.796Z,6.69
2022-12-01T11:52:47.432Z,6.73
2022-12-01T11:55:15.152Z,6.61
2022-12-01T11:57:48.696Z,6.56
2022-12-01T12:00:22.175Z,6.74
2022-12-01T12:03:14.332Z,6.54
2022-12-01T12:09:28.700Z,6.82
2022-12-01T12:12:25.436Z,6.06
2022-12-01T12:15:15.875Z,6.24
2022-12-01T12:18:08.633Z,6.54
2022-12-01T12:20:54.940Z,6.60
2022-12-01T12:23:50.956Z,6.49
2022-12-01T12:26:24.389Z,6.48
2022-12-01T12:29:14.071Z,6.22
2022-12-01T12:31:54.033Z,6.66
2022-12-01T12:34:31.911Z,6.71
2022-12-01T12:37:20.282Z,6.71
2022-12-01T12:39:54.727Z,6.95
2022-12-01T12:42:35.182Z,6.79
2022-12-01T12:45:14.194Z,6.83
2022-12-01T12:47:41.358Z,6.96
2022-12-01T12:50:21.156Z,7.05
2022-12-01T12:53:15.651Z,7.31
2022-12-01T12:55:50.095Z,6.84
2022-12-01T12:58:26.685Z,7.19
2022-12-01T13:00:59.284Z,7.11
2022-12-01T13:03:47.738Z,6.88
2022-12-01T13:06:22.458Z,7.12
2022-12-01T13:08:59.727Z,7.18
2022-12-01T13:11:33.879Z,7.38
2022-12-01T13:14:20.673Z,7.11
2022-12-01T13:16:49.780Z,7.13
2022-12-01T13:19:22.614Z,6.85
2022-12-01T13:21:51.286Z,6.79
2022-12-01T13:24:24.011Z,6.43
2022-12-01T13:27:04.987Z,6.68
2022-12-01T13:29:47.650Z,6.67
2022-12-01T13:32:31.999Z,6.54
2022-12-01T13:35:00.637Z,6.46
2022-12-01T13:37:36.448Z,6.44
2022-12-01T13:40:26.381Z,6.41
2022-12-01T13:43:10.322Z,6.63
2022-12-01T13:45:40.223Z,6.67
2022-12-01T13:48:28.970Z,6.64
2022-12-01T13:51:01.781Z,6.85
2022-12-01T13:53:34.666Z,6.80
2022-12-01T13:56:17.445Z,6.77
2022-12-01T13:58:48.920Z,6.87
2022-12-01T14:01:23.131Z,7.05
2022-12-01T14:04:03.001Z,6.58
2022-12-01T14:06:36.122Z,6.49
2022-12-01T14:09:15.406Z,6.66
2022-12-01T14:11:58.272Z,6.77
2022-12-01T14:14:27.423Z,6.66
2022-12-01T14:16:58.704Z,6.22
2022-12-01T14:19:46.297Z,6.33
2022-12-01T14:22:32.466Z,6.60
2022-12-01T14:25:00.174Z,6.50
2022-12-01T14:27:43.722Z,6.35
2022-12-01T14:30:45.866Z,6.31
2022-12-01T14:33:51.252Z,6.47
2022-12-01T14:36:24.529Z,6.62
2022-12-01T14:39:23.344Z,6.58
2022-12-01T14:41:55.115Z,6.25
2022-12-01T14:44:38.506Z,6.08
2022-12-01T14:47:11.883Z,6.46
2022-12-01T14:50:10.116Z,6.61
2022-12-01T14:52:40.368Z,6.54
2022-12-01T14:55:12.946Z,6.37
2022-12-01T14:57:44.862Z,6.30
2022-12-01T15:00:25.122Z,6.66
2022-12-01T15:02:59.425Z,6.63
2022-12-01T15:05:31.565Z,6.63
2022-12-01T15:08:33.771Z,6.52
2022-12-01T15:10:52.519Z,6.54
2022-12-01T15:13:24.910Z,6.52
2022-12-01T15:16:00.789Z,6.39
2022-12-01T15:18:37.088Z,6.41
2022-12-01T15:21:10.170Z,6.21
2022-12-01T15:23:37.729Z,6.57
2022-12-01T15:26:05.111Z,6.53
2022-12-01T15:28:34.462Z,6.65
2022-12-01T15:31:13.342Z,6.69
2022-12-01T15:33:49.403Z,6.75
2022-12-01T15:36:16.996Z,6.77
2022-12-01T15:38:46.434Z,6.63
2022-12-01T15:41:28.933Z,6.65
2022-12-01T15:43:59.049Z,6.36
2022-12-01T15:46:30.205Z,6.63
2022-12-01T15:49:16.616Z,6.47
2022-12-01T15:51:43.959Z,6.77
2022-12-01T15:54:24.909Z,6.88
2022-12-01T15:56:55.006Z,6.89
2022-12-01T15:59:33.743Z,6.73
2022-12-01T16:02:07.404Z,6.71
2022-12-01T16:04:37.213Z,6.76
2022-12-01T16:07:07.993Z,6.84
2022-12-01T16:09:37.581Z,6.96
2022-12-01T16:12:17.553Z,7.00
2022-12-01T16:14:49.595Z,6.76
2022-12-01T16:17:17.494Z,6.91
2022-12-01T16:19:45.499Z,6.80
2022-12-01T16:22:19.275Z,6.92
2022-12-01T16:24:52.963Z,7.16
2022-12-01T16:27:27.081Z,6.99
2022-12-01T16:29:58.240Z,6.78
2022-12-01T16:32:36.365Z,6.70
2022-12-01T16:35:21.524Z,6.75
2022-12-01T16:37:48.997Z,6.63
2022-12-01T16:40:16.985Z,6.82
2022-12-01T16:42:44.197Z,6.78
2022-12-01T16:45:15.725Z,6.70
2022-12-01T16:47:44.144Z,6.70
2022-12-01T16:50:16.278Z,6.91
2022-12-01T16:52:45.229Z,7.20
2022-12-01T16:55:43.832Z,7.32
2022-12-01T16:58:11.125Z,7.29
2022-12-01T17:00:38.431Z,7.40
2022-12-01T17:03:06.278Z,6.94
2022-12-01T17:05:34.308Z,6.98
2022-12-01T17:08:01.555Z,7.01
2022-12-01T17:10:28.905Z,6.89
2022-12-01T17:12:56.423Z,6.85
2022-12-01T17:15:23.860Z,7.00
2022-12-01T17:17:51.422Z,6.92
2022-12-01T17:20:18.705Z,7.21
2022-12-01T17:22:45.938Z,6.94
2022-12-01T17:25:13.138Z,7.01
2022-12-01T17:27:41.909Z,6.79
2022-12-01T17:30:10.185Z,6.85
2022-12-01T17:32:37.387Z,6.84
2022-12-01T17:35:05.067Z,6.93
2022-12-01T17:37:32.279Z,7.02
2022-12-01T17:40:00.445Z,7.04
2022-12-01T17:42:31.153Z,7.08
2022-12-01T17:44:58.721Z,7.33
2022-12-01T17:47:27.147Z,6.99
2022-12-01T17:49:54.550Z,7.20
2022-12-01T17:52:26.720Z,7.29
2022-12-01T17:54:56.450Z,7.02
2022-12-01T17:57:23.812Z,7.14
2022-12-01T17:59:50.992Z,7.13
2022-12-01T18:02:18.501Z,6.93
2022-12-01T18:04:46.779Z,7.06
2022-12-01T18:07:14.027Z,6.98
2022-12-01T18:09:41.475Z,7.27
2022-12-01T18:12:08.687Z,7.26
2022-12-01T18:14:37.555Z,7.22
2022-12-01T18:17:05.612Z,7.11
2022-12-01T18:19:33.232Z,7.16
2022-12-01T18:22:00.502Z,7.12
2022-12-01T18:24:27.912Z,7.08
2022-12-01T18:26:56.439Z,7.19
2022-12-01T18:29:26.012Z,7.21
2022-12-01T18:31:57.379Z,7.32
2022-12-01T18:34:31.300Z,7.09
2022-12-01T18:36:58.753Z,7.10
2022-12-01T18:39:26.047Z,7.12
2022-12-01T18:41:53.426Z,7.21
2022-12-01T18:44:21.021Z,7.20
2022-12-01T18:46:48.257Z,7.22
2022-12-01T18:49:18.378Z,7.04
2022-12-01T18:51:45.507Z,6.99
2022-12-01T18:54:14.559Z,6.85
2022-12-01T18:56:42.286Z,6.99
2022-12-01T18:59:10.494Z,6.83
2022-12-01T19:01:40.190Z,6.83
2022-12-01T19:04:10.930Z,6.99
2022-12-01T19:06:39.776Z,7.04
2022-12-01T19:09:09.435Z,7.08
2022-12-01T19:11:37.868Z,7.04
2022-12-01T19:14:05.071Z,7.13
2022-12-01T19:16:33.320Z,6.97
2022-12-01T19:19:01.183Z,7.05
2022-12-01T19:21:28.438Z,7.08
2022-12-01T19:23:56.301Z,7.05
2022-12-01T19:26:24.043Z,7.14
2022-12-01T19:28:51.637Z,7.20
2022-12-01T19:31:22.629Z,7.04
2022-12-01T19:33:51.551Z,7.04
2022-12-01T19:36:20.752Z,7.10
2022-12-01T19:38:48.300Z,7.15
2022-12-01T19:41:16.164Z,7.20
2022-12-01T19:43:43.706Z,7.17
2022-12-01T19:46:14.965Z,7.15
2022-12-01T19:48:43.108Z,6.99
2022-12-01T19:51:25.170Z,6.99
2022-12-01T19:53:53.384Z,7.02
2022-12-01T19:56:21.134Z,6.95
2022-12-01T19:58:48.367Z,7.01
2022-12-01T20:01:17.003Z,7.04
2022-12-01T20:03:49.849Z,7.04
2022-12-01T20:06:22.684Z,7.04
2022-12-01T20:08:50.581Z,6.94
2022-12-01T20:11:18.180Z,7.07
2022-12-01T20:13:46.839Z,7.07
2022-12-01T20:16:17.152Z,6.95
2022-12-01T20:18:44.862Z,7.04
2022-12-01T20:21:18.959Z,6.86
2022-12-01T20:23:48.376Z,6.90
2022-12-01T20:26:17.482Z,6.95
2022-12-01T20:28:46.551Z,6.97
2022-12-01T20:31:22.967Z,6.97
2022-12-01T20:33:52.736Z,7.01
2022-12-01T20:36:20.076Z,7.11
2022-12-01T20:38:47.635Z,7.00
2022-12-01T20:41:15.212Z,6.91
2022-12-01T20:43:42.731Z,6.78
2022-12-01T20:46:11.464Z,6.89
2022-12-01T20:48:38.892Z,6.84
2022-12-01T20:51:07.516Z,6.79
2022-12-01T20:53:35.773Z,6.76
2022-12-01T20:56:08.675Z,6.83
2022-12-01T20:58:37.947Z,6.78
2022-12-01T21:01:18.682Z,7.01
2022-12-01T21:03:46.398Z,7.04
2022-12-01T21:06:15.025Z,7.04
2022-12-01T21:08:43.886Z,6.97
2022-12-01T21:11:52.684Z,7.18
2022-12-01T21:14:41.580Z,7.16
2022-12-01T21:17:32.399Z,7.10
2022-12-01T21:20:12.931Z,7.10
2022-12-01T21:22:40.236Z,7.07
2022-12-01T21:25:15.743Z,7.01
2022-12-01T21:27:42.913Z,6.88
2022-12-01T21:30:22.028Z,6.88
2022-12-01T21:32:49.597Z,6.99
2022-12-01T21:35:25.074Z,7.05
2022-12-01T21:38:04.626Z,6.94
2022-12-01T21:40:31.918Z,7.06
2022-12-01T21:43:01.807Z,7.19
2022-12-01T21:45:32.031Z,6.84
2022-12-01T21:48:20.037Z,7.02
2022-12-01T21:50:52.409Z,6.93
2022-12-01T21:53:21.666Z,6.91
2022-12-01T21:55:49.321Z,6.69
2022-12-01T21:58:24.551Z,6.79
2022-12-01T22:00:52.943Z,6.80
2022-12-01T22:03:39.782Z,6.92
2022-12-01T22:09:01.562Z,6.77
2022-12-01T22:11:30.429Z,6.78
2022-12-01T22:14:19.154Z,7.04
2022-12-01T22:17:01.529Z,7.00
2022-12-01T22:19:31.412Z,7.17
2022-12-01T22:22:03.076Z,7.14
2022-12-01T22:24:39.887Z,7.21
2022-12-01T22:27:28.476Z,7.12
2022-12-01T22:29:58.930Z,7.01
2022-12-01T22:32:35.383Z,6.95
2022-12-01T22:35:26.224Z,7.08
2022-12-01T22:37:57.398Z,7.01
2022-12-01T22:40:54.936Z,6.98
2022-12-01T22:43:30.484Z,7.04
2022-12-01T22:46:07.380Z,7.05
2022-12-01T22:48:40.053Z,6.99
2022-12-01T22:51:13.763Z,7.14
2022-12-01T22:53:42.930Z,6.99
2022-12-01T22:56:38.109Z,6.84
2022-12-01T22:59:28.010Z,6.82
2022-12-01T23:01:57.499Z,6.60
2022-12-01T23:04:28.630Z,6.85
2022-12-01T23:07:00.902Z,6.83
2022-12-01T23:09:32.637Z,6.93
2022-12-01T23:12:22.190Z,6.93
2022-12-01T23:14:52.979Z,7.01
2022-12-01T23:17:20.351Z,6.70
2022-12-01T23:19:49.122Z,6.70
2022-12-01T23:22:16.818Z,6.76
2022-12-01T23:24:44.106Z,6.87
2022-12-01T23:27:11.491Z,6.85
2022-12-01T23:29:38.678Z,6.59
2022-12-01T23:32:06.174Z,6.59
2022-12-01T23:34:33.881Z,6.47
2022-12-01T23:37:01.087Z,6.57
2022-12-01T23:39:35.443Z,6.69
2022-12-01T23:42:03.226Z,6.64
2022-12-01T23:44:38.871Z,6.48
2022-12-01T23:47:22.628Z,6.52
2022-12-01T23:49:58.100Z,6.56
2022-12-01T23:52:32.687Z,6.64
2022-12-01T23:55:00.112Z,6.57
2022-12-01T23:57:27.490Z,6.48
2022-12-01T23:59:58.924Z,6.62
